sensor_id;sensor_type;location;lat;lon;timestamp;pressure;altitude;pressure_sealevel;temperature;humidity
53522;BME280;39398;48.382;9.802;2023-07-16T00:02:17;93829.97;;;19.57;100.00
53522;BME280;39398;48.382;9.802;2023-07-16T00:07:20;93813.22;;;19.88;100.00
53522;BME280;39398;48.382;9.802;2023-07-16T00:12:21;93815.41;;;19.91;100.00
53522;BME280;39398;48.382;9.802;2023-07-16T00:17:23;93810.25;;;19.85;100.00
53522;BME280;39398;48.382;9.802;2023-07-16T00:22:26;93819.88;;;19.86;100.00
53522;BME280;39398;48.382;9.802;2023-07-16T00:27:27;93825.44;;;19.79;100.00
53522;BME280;39398;48.382;9.802;2023-07-16T00:32:29;93846.91;;;19.84;100.00
53522;BME280;39398;48.382;9.802;2023-07-16T00:37:33;93839.13;;;19.83;100.00
53522;BME280;39398;48.382;9.802;2023-07-16T00:42:34;93864.13;;;19.88;100.00
53522;BME280;39398;48.382;9.802;2023-07-16T00:47:36;93863.97;;;20.00;100.00
53522;BME280;39398;48.382;9.802;2023-07-16T00:52:39;93869.00;;;19.96;100.00
53522;BME280;39398;48.382;9.802;2023-07-16T00:57:41;93889.47;;;19.81;100.00
53522;BME280;39398;48.382;9.802;2023-07-16T01:02:43;93894.06;;;20.07;100.00
53522;BME280;39398;48.382;9.802;2023-07-16T01:07:52;93914.50;;;19.69;100.00
53522;BME280;39398;48.382;9.802;2023-07-16T01:12:56;93963.28;;;19.04;100.00
53522;BME280;39398;48.382;9.802;2023-07-16T01:17:59;93969.53;;;18.93;100.00
53522;BME280;39398;48.382;9.802;2023-07-16T01:23:30;93967.06;;;18.46;100.00
53522;BME280;39398;48.382;9.802;2023-07-16T01:29:11;93961.03;;;18.67;100.00
53522;BME280;39398;48.382;9.802;2023-07-16T01:34:16;93939.44;;;18.86;100.00
53522;BME280;39398;48.382;9.802;2023-07-16T01:39:18;93897.88;;;18.49;100.00
53522;BME280;39398;48.382;9.802;2023-07-16T01:44:22;93883.88;;;17.85;100.00
53522;BME280;39398;48.382;9.802;2023-07-16T01:49:24;93882.06;;;17.62;100.00
53522;BME280;39398;48.382;9.802;2023-07-16T01:54:26;93837.56;;;17.39;100.00
53522;BME280;39398;48.382;9.802;2023-07-16T01:59:29;93853.66;;;17.32;100.00
53522;BME280;39398;48.382;9.802;2023-07-16T02:04:31;93859.78;;;17.44;100.00
53522;BME280;39398;48.382;9.802;2023-07-16T02:09:33;93830.94;;;17.70;100.00
53522;BME280;39398;48.382;9.802;2023-07-16T02:14:36;93825.72;;;17.87;100.00
53522;BME280;39398;48.382;9.802;2023-07-16T02:19:38;93826.47;;;17.59;100.00
53522;BME280;39398;48.382;9.802;2023-07-16T02:24:39;93843.09;;;17.49;100.00
53522;BME280;39398;48.382;9.802;2023-07-16T02:29:42;93835.97;;;17.55;100.00
53522;BME280;39398;48.382;9.802;2023-07-16T02:34:44;93868.66;;;17.85;100.00
53522;BME280;39398;48.382;9.802;2023-07-16T02:39:45;93897.28;;;18.02;100.00
53522;BME280;39398;48.382;9.802;2023-07-16T02:44:48;93902.31;;;17.86;100.00
53522;BME280;39398;48.382;9.802;2023-07-16T02:49:50;93886.50;;;17.97;100.00
53522;BME280;39398;48.382;9.802;2023-07-16T02:54:52;93894.38;;;18.32;100.00
53522;BME280;39398;48.382;9.802;2023-07-16T02:59:55;93901.53;;;18.15;100.00
53522;BME280;39398;48.382;9.802;2023-07-16T03:04:56;93913.13;;;18.20;100.00
53522;BME280;39398;48.382;9.802;2023-07-16T03:09:58;93934.13;;;18.00;100.00
53522;BME280;39398;48.382;9.802;2023-07-16T03:15:01;93957.97;;;18.18;100.00
53522;BME280;39398;48.382;9.802;2023-07-16T03:20:03;93960.59;;;18.30;100.00
53522;BME280;39398;48.382;9.802;2023-07-16T03:25:10;93987.59;;;18.28;100.00
53522;BME280;39398;48.382;9.802;2023-07-16T03:30:13;93961.38;;;18.02;100.00
53522;BME280;39398;48.382;9.802;2023-07-16T03:35:15;93958.78;;;18.19;100.00
53522;BME280;39398;48.382;9.802;2023-07-16T03:40:18;93958.84;;;18.07;100.00
53522;BME280;39398;48.382;9.802;2023-07-16T03:45:21;93964.44;;;17.94;100.00
53522;BME280;39398;48.382;9.802;2023-07-16T03:50:23;93979.56;;;18.28;100.00
53522;BME280;39398;48.382;9.802;2023-07-16T03:55:24;93972.72;;;18.21;100.00
53522;BME280;39398;48.382;9.802;2023-07-16T04:00:27;93995.22;;;17.84;100.00
53522;BME280;39398;48.382;9.802;2023-07-16T04:05:29;93994.63;;;17.47;100.00
53522;BME280;39398;48.382;9.802;2023-07-16T04:10:30;93978.28;;;17.55;100.00
53522;BME280;39398;48.382;9.802;2023-07-16T04:15:33;93995.44;;;17.95;100.00
53522;BME280;39398;48.382;9.802;2023-07-16T04:20:35;93994.53;;;17.77;100.00
53522;BME280;39398;48.382;9.802;2023-07-16T04:25:36;93996.50;;;17.47;100.00
53522;BME280;39398;48.382;9.802;2023-07-16T04:30:39;93992.66;;;17.66;100.00
53522;BME280;39398;48.382;9.802;2023-07-16T04:35:41;94001.44;;;18.02;100.00
53522;BME280;39398;48.382;9.802;2023-07-16T04:40:42;94003.94;;;18.32;100.00
53522;BME280;39398;48.382;9.802;2023-07-16T04:45:46;93997.16;;;18.01;100.00
53522;BME280;39398;48.382;9.802;2023-07-16T04:50:47;94001.38;;;17.50;100.00
53522;BME280;39398;48.382;9.802;2023-07-16T04:55:49;94008.78;;;17.48;100.00
53522;BME280;39398;48.382;9.802;2023-07-16T05:00:52;94035.25;;;18.08;100.00
53522;BME280;39398;48.382;9.802;2023-07-16T05:05:53;94060.41;;;18.24;100.00
53522;BME280;39398;48.382;9.802;2023-07-16T05:10:55;94014.59;;;17.92;100.00
53522;BME280;39398;48.382;9.802;2023-07-16T05:15:58;94010.59;;;18.06;100.00
53522;BME280;39398;48.382;9.802;2023-07-16T05:21:00;94034.50;;;18.36;100.00
53522;BME280;39398;48.382;9.802;2023-07-16T05:26:01;94047.59;;;18.49;100.00
53522;BME280;39398;48.382;9.802;2023-07-16T05:31:04;94044.22;;;18.54;100.00
53522;BME280;39398;48.382;9.802;2023-07-16T05:36:06;94046.06;;;17.89;100.00
53522;BME280;39398;48.382;9.802;2023-07-16T05:41:08;94048.72;;;17.89;100.00
53522;BME280;39398;48.382;9.802;2023-07-16T05:46:11;94056.72;;;18.13;100.00
53522;BME280;39398;48.382;9.802;2023-07-16T05:51:12;94057.28;;;18.27;100.00
53522;BME280;39398;48.382;9.802;2023-07-16T05:56:14;94073.91;;;18.29;100.00
53522;BME280;39398;48.382;9.802;2023-07-16T06:01:17;94056.72;;;18.13;100.00
53522;BME280;39398;48.382;9.802;2023-07-16T06:06:19;94069.72;;;18.21;100.00
53522;BME280;39398;48.382;9.802;2023-07-16T06:11:20;94056.28;;;18.04;100.00
53522;BME280;39398;48.382;9.802;2023-07-16T06:16:24;94052.22;;;17.78;100.00
53522;BME280;39398;48.382;9.802;2023-07-16T06:21:25;94041.31;;;18.03;100.00
53522;BME280;39398;48.382;9.802;2023-07-16T06:26:27;94062.41;;;18.05;100.00
53522;BME280;39398;48.382;9.802;2023-07-16T06:31:30;94081.50;;;17.97;100.00
53522;BME280;39398;48.382;9.802;2023-07-16T06:36:31;94088.75;;;17.66;100.00
53522;BME280;39398;48.382;9.802;2023-07-16T06:41:33;94083.75;;;17.58;100.00
53522;BME280;39398;48.382;9.802;2023-07-16T06:46:36;94082.31;;;17.97;100.00
53522;BME280;39398;48.382;9.802;2023-07-16T06:51:38;94084.09;;;17.73;100.00
53522;BME280;39398;48.382;9.802;2023-07-16T06:56:39;94104.81;;;17.78;100.00
53522;BME280;39398;48.382;9.802;2023-07-16T07:01:42;94087.88;;;17.84;100.00
53522;BME280;39398;48.382;9.802;2023-07-16T07:06:44;94070.41;;;17.58;100.00
53522;BME280;39398;48.382;9.802;2023-07-16T07:11:46;94064.41;;;17.86;100.00
53522;BME280;39398;48.382;9.802;2023-07-16T07:16:49;94065.16;;;17.51;100.00
53522;BME280;39398;48.382;9.802;2023-07-16T07:21:50;94058.38;;;17.91;100.00
53522;BME280;39398;48.382;9.802;2023-07-16T07:26:52;94056.06;;;17.82;100.00
53522;BME280;39398;48.382;9.802;2023-07-16T07:31:55;94055.25;;;17.94;100.00
53522;BME280;39398;48.382;9.802;2023-07-16T07:36:56;94069.06;;;17.79;100.00
53522;BME280;39398;48.382;9.802;2023-07-16T07:41:59;94068.34;;;17.83;100.00
53522;BME280;39398;48.382;9.802;2023-07-16T07:47:02;94052.63;;;18.34;100.00
53522;BME280;39398;48.382;9.802;2023-07-16T07:52:05;94071.22;;;18.69;100.00
53522;BME280;39398;48.382;9.802;2023-07-16T07:57:07;94065.88;;;18.69;100.00
53522;BME280;39398;48.382;9.802;2023-07-16T08:02:10;94071.63;;;18.49;100.00
53522;BME280;39398;48.382;9.802;2023-07-16T08:07:11;94072.16;;;18.75;100.00
53522;BME280;39398;48.382;9.802;2023-07-16T08:12:13;94089.94;;;18.81;100.00
53522;BME280;39398;48.382;9.802;2023-07-16T08:17:17;94085.69;;;19.25;100.00
53522;BME280;39398;48.382;9.802;2023-07-16T08:22:23;94088.78;;;19.51;100.00
53522;BME280;39398;48.382;9.802;2023-07-16T08:27:24;94083.00;;;19.88;100.00
53522;BME280;39398;48.382;9.802;2023-07-16T08:32:27;94076.53;;;20.06;100.00
53522;BME280;39398;48.382;9.802;2023-07-16T08:37:29;94065.44;;;19.46;100.00
53522;BME280;39398;48.382;9.802;2023-07-16T08:42:31;94074.41;;;19.69;100.00
53522;BME280;39398;48.382;9.802;2023-07-16T08:47:34;94065.88;;;20.94;100.00
53522;BME280;39398;48.382;9.802;2023-07-16T08:52:37;94056.22;;;21.20;100.00
53522;BME280;39398;48.382;9.802;2023-07-16T08:57:39;94059.59;;;20.22;100.00
53522;BME280;39398;48.382;9.802;2023-07-16T09:02:42;94046.03;;;20.95;100.00
53522;BME280;39398;48.382;9.802;2023-07-16T09:07:44;94038.59;;;21.61;100.00
53522;BME280;39398;48.382;9.802;2023-07-16T09:12:46;94036.59;;;22.84;100.00
53522;BME280;39398;48.382;9.802;2023-07-16T09:17:49;94035.31;;;22.96;100.00
53522;BME280;39398;48.382;9.802;2023-07-16T09:22:53;94029.88;;;21.81;100.00
53522;BME280;39398;48.382;9.802;2023-07-16T09:27:56;94039.25;;;21.73;100.00
53522;BME280;39398;48.382;9.802;2023-07-16T09:33:09;94034.63;;;22.06;100.00
53522;BME280;39398;48.382;9.802;2023-07-16T09:38:11;94028.78;;;21.77;100.00
53522;BME280;39398;48.382;9.802;2023-07-16T09:43:13;94019.31;;;22.59;100.00
53522;BME280;39398;48.382;9.802;2023-07-16T09:48:16;94036.56;;;22.16;100.00
53522;BME280;39398;48.382;9.802;2023-07-16T09:53:19;94044.16;;;22.24;100.00
53522;BME280;39398;48.382;9.802;2023-07-16T09:58:21;94040.19;;;21.57;100.00
53522;BME280;39398;48.382;9.802;2023-07-16T10:03:26;94046.94;;;22.44;100.00
53522;BME280;39398;48.382;9.802;2023-07-16T10:08:33;94045.47;;;22.84;100.00
53522;BME280;39398;48.382;9.802;2023-07-16T10:13:35;94052.34;;;22.07;100.00
53522;BME280;39398;48.382;9.802;2023-07-16T10:18:38;94036.53;;;22.68;100.00
53522;BME280;39398;48.382;9.802;2023-07-16T10:23:40;94035.13;;;22.56;100.00
53522;BME280;39398;48.382;9.802;2023-07-16T10:28:42;94037.78;;;23.08;100.00
53522;BME280;39398;48.382;9.802;2023-07-16T10:33:56;94023.28;;;23.76;100.00
53522;BME280;39398;48.382;9.802;2023-07-16T10:39:02;94012.19;;;23.01;100.00
53522;BME280;39398;48.382;9.802;2023-07-16T10:44:04;94021.06;;;23.01;100.00
53522;BME280;39398;48.382;9.802;2023-07-16T10:49:07;94021.34;;;23.05;100.00
53522;BME280;39398;48.382;9.802;2023-07-16T10:54:08;94016.47;;;23.07;100.00
53522;BME280;39398;48.382;9.802;2023-07-16T10:59:10;94025.72;;;23.52;100.00
53522;BME280;39398;48.382;9.802;2023-07-16T11:04:13;94019.94;;;22.92;100.00
53522;BME280;39398;48.382;9.802;2023-07-16T11:09:14;94029.44;;;23.61;100.00
53522;BME280;39398;48.382;9.802;2023-07-16T11:14:16;94030.25;;;23.26;100.00
53522;BME280;39398;48.382;9.802;2023-07-16T11:19:21;94024.84;;;23.26;100.00
53522;BME280;39398;48.382;9.802;2023-07-16T11:24:22;94033.72;;;24.28;100.00
53522;BME280;39398;48.382;9.802;2023-07-16T11:29:24;94038.41;;;23.72;100.00
53522;BME280;39398;48.382;9.802;2023-07-16T11:34:27;94033.78;;;23.57;100.00
53522;BME280;39398;48.382;9.802;2023-07-16T11:39:29;94017.88;;;23.35;100.00
53522;BME280;39398;48.382;9.802;2023-07-16T11:44:33;94011.38;;;23.05;100.00
53522;BME280;39398;48.382;9.802;2023-07-16T11:49:36;94017.47;;;22.75;100.00
53522;BME280;39398;48.382;9.802;2023-07-16T11:54:38;94022.69;;;23.23;100.00
53522;BME280;39398;48.382;9.802;2023-07-16T11:59:39;94015.22;;;23.76;100.00
53522;BME280;39398;48.382;9.802;2023-07-16T12:04:43;94015.72;;;22.38;100.00
53522;BME280;39398;48.382;9.802;2023-07-16T12:09:44;94014.44;;;22.61;100.00
53522;BME280;39398;48.382;9.802;2023-07-16T12:14:47;94009.00;;;21.93;100.00
53522;BME280;39398;48.382;9.802;2023-07-16T12:19:50;94001.16;;;22.29;100.00
53522;BME280;39398;48.382;9.802;2023-07-16T12:24:52;94002.31;;;21.96;100.00
53522;BME280;39398;48.382;9.802;2023-07-16T12:29:53;94003.88;;;22.39;100.00
53522;BME280;39398;48.382;9.802;2023-07-16T12:34:56;94000.13;;;22.45;100.00
53522;BME280;39398;48.382;9.802;2023-07-16T12:39:58;93987.91;;;21.70;100.00
53522;BME280;39398;48.382;9.802;2023-07-16T12:45:00;93994.09;;;21.75;100.00
53522;BME280;39398;48.382;9.802;2023-07-16T12:50:04;93989.06;;;23.46;100.00
53522;BME280;39398;48.382;9.802;2023-07-16T12:55:06;93989.84;;;23.56;100.00
53522;BME280;39398;48.382;9.802;2023-07-16T13:00:08;93983.13;;;23.43;100.00
53522;BME280;39398;48.382;9.802;2023-07-16T13:05:12;93993.63;;;23.71;100.00
53522;BME280;39398;48.382;9.802;2023-07-16T13:10:14;93993.22;;;24.44;100.00
53522;BME280;39398;48.382;9.802;2023-07-16T13:15:24;94000.28;;;24.94;100.00
53522;BME280;39398;48.382;9.802;2023-07-16T13:20:27;93989.91;;;25.12;100.00
53522;BME280;39398;48.382;9.802;2023-07-16T13:25:29;93980.72;;;24.63;100.00
53522;BME280;39398;48.382;9.802;2023-07-16T13:30:31;93976.22;;;24.43;100.00
53522;BME280;39398;48.382;9.802;2023-07-16T13:35:37;93982.22;;;24.90;100.00
53522;BME280;39398;48.382;9.802;2023-07-16T13:40:40;93974.84;;;25.40;100.00
53522;BME280;39398;48.382;9.802;2023-07-16T13:45:42;93974.81;;;25.50;100.00
53522;BME280;39398;48.382;9.802;2023-07-16T13:50:45;93979.13;;;25.46;100.00
53522;BME280;39398;48.382;9.802;2023-07-16T13:55:47;93974.03;;;25.44;100.00
53522;BME280;39398;48.382;9.802;2023-07-16T14:00:48;93984.59;;;25.41;100.00
53522;BME280;39398;48.382;9.802;2023-07-16T14:05:51;93984.75;;;25.55;100.00
53522;BME280;39398;48.382;9.802;2023-07-16T14:10:53;93976.03;;;25.63;100.00
53522;BME280;39398;48.382;9.802;2023-07-16T14:15:55;93987.34;;;25.36;100.00
53522;BME280;39398;48.382;9.802;2023-07-16T14:20:58;93976.09;;;25.52;100.00
53522;BME280;39398;48.382;9.802;2023-07-16T14:25:59;93974.63;;;25.70;100.00
53522;BME280;39398;48.382;9.802;2023-07-16T14:31:01;93971.81;;;25.51;100.00
53522;BME280;39398;48.382;9.802;2023-07-16T14:36:08;93977.28;;;25.46;100.00
53522;BME280;39398;48.382;9.802;2023-07-16T14:41:10;93963.22;;;25.44;100.00
53522;BME280;39398;48.382;9.802;2023-07-16T14:46:12;93972.56;;;25.57;100.00
53522;BME280;39398;48.382;9.802;2023-07-16T14:51:15;93968.31;;;25.46;100.00
53522;BME280;39398;48.382;9.802;2023-07-16T14:56:16;93967.13;;;25.62;100.00
53522;BME280;39398;48.382;9.802;2023-07-16T15:01:18;93966.06;;;25.92;100.00
53522;BME280;39398;48.382;9.802;2023-07-16T15:06:21;93960.69;;;26.16;100.00
53522;BME280;39398;48.382;9.802;2023-07-16T15:11:24;93950.66;;;25.59;100.00
53522;BME280;39398;48.382;9.802;2023-07-16T15:16:26;93946.31;;;25.92;100.00
53522;BME280;39398;48.382;9.802;2023-07-16T15:21:29;93943.72;;;26.06;100.00
53522;BME280;39398;48.382;9.802;2023-07-16T15:26:34;93943.44;;;25.83;100.00
53522;BME280;39398;48.382;9.802;2023-07-16T15:31:36;93943.66;;;25.87;100.00
53522;BME280;39398;48.382;9.802;2023-07-16T15:36:39;93938.47;;;25.61;100.00
53522;BME280;39398;48.382;9.802;2023-07-16T15:41:40;93946.66;;;25.80;100.00
53522;BME280;39398;48.382;9.802;2023-07-16T15:46:42;93947.72;;;25.55;100.00
53522;BME280;39398;48.382;9.802;2023-07-16T15:51:46;93943.03;;;25.37;100.00
53522;BME280;39398;48.382;9.802;2023-07-16T15:56:48;93938.88;;;25.49;100.00
53522;BME280;39398;48.382;9.802;2023-07-16T16:01:50;93939.50;;;25.65;100.00
53522;BME280;39398;48.382;9.802;2023-07-16T16:06:53;93942.88;;;25.52;100.00
53522;BME280;39398;48.382;9.802;2023-07-16T16:11:54;93949.75;;;25.68;100.00
53522;BME280;39398;48.382;9.802;2023-07-16T16:16:56;93950.50;;;25.74;100.00
53522;BME280;39398;48.382;9.802;2023-07-16T16:22:10;93945.19;;;25.69;100.00
53522;BME280;39398;48.382;9.802;2023-07-16T16:27:12;93949.00;;;25.34;100.00
53522;BME280;39398;48.382;9.802;2023-07-16T16:32:14;93952.44;;;25.39;100.00
53522;BME280;39398;48.382;9.802;2023-07-16T16:37:17;93949.09;;;25.18;100.00
53522;BME280;39398;48.382;9.802;2023-07-16T16:42:18;93948.63;;;25.06;100.00
53522;BME280;39398;48.382;9.802;2023-07-16T16:47:20;93947.34;;;24.49;100.00
53522;BME280;39398;48.382;9.802;2023-07-16T16:52:24;93956.84;;;24.41;100.00
53522;BME280;39398;48.382;9.802;2023-07-16T16:57:25;93952.09;;;23.92;100.00
53522;BME280;39398;48.382;9.802;2023-07-16T17:02:27;93952.41;;;23.80;100.00
53522;BME280;39398;48.382;9.802;2023-07-16T17:07:30;93951.06;;;23.52;100.00
53522;BME280;39398;48.382;9.802;2023-07-16T17:12:32;93958.88;;;23.59;100.00
53522;BME280;39398;48.382;9.802;2023-07-16T17:17:34;93956.97;;;23.54;100.00
53522;BME280;39398;48.382;9.802;2023-07-16T17:22:37;93951.06;;;23.67;100.00
53522;BME280;39398;48.382;9.802;2023-07-16T17:27:39;93954.66;;;24.33;100.00
53522;BME280;39398;48.382;9.802;2023-07-16T17:32:41;93959.09;;;24.03;100.00
53522;BME280;39398;48.382;9.802;2023-07-16T17:37:44;93958.34;;;23.72;100.00
53522;BME280;39398;48.382;9.802;2023-07-16T17:42:45;93954.28;;;23.85;100.00
53522;BME280;39398;48.382;9.802;2023-07-16T17:47:47;93956.69;;;23.86;100.00
53522;BME280;39398;48.382;9.802;2023-07-16T17:52:50;93962.03;;;24.07;100.00
53522;BME280;39398;48.382;9.802;2023-07-16T17:57:51;93974.19;;;24.09;100.00
53522;BME280;39398;48.382;9.802;2023-07-16T18:02:53;93958.97;;;24.34;100.00
53522;BME280;39398;48.382;9.802;2023-07-16T18:07:56;93974.81;;;24.61;100.00
53522;BME280;39398;48.382;9.802;2023-07-16T18:12:58;93960.00;;;24.53;100.00
53522;BME280;39398;48.382;9.802;2023-07-16T18:18:00;93963.78;;;24.57;100.00
53522;BME280;39398;48.382;9.802;2023-07-16T18:23:03;93952.97;;;24.57;100.00
53522;BME280;39398;48.382;9.802;2023-07-16T18:28:05;93960.34;;;24.42;100.00
53522;BME280;39398;48.382;9.802;2023-07-16T18:33:06;93958.44;;;24.42;100.00
53522;BME280;39398;48.382;9.802;2023-07-16T18:38:09;93962.50;;;24.24;100.00
53522;BME280;39398;48.382;9.802;2023-07-16T18:43:12;93952.00;;;24.23;100.00
53522;BME280;39398;48.382;9.802;2023-07-16T18:48:13;93964.28;;;23.74;100.00
53522;BME280;39398;48.382;9.802;2023-07-16T18:53:17;93963.72;;;23.72;100.00
53522;BME280;39398;48.382;9.802;2023-07-16T18:58:18;93966.44;;;23.36;100.00
53522;BME280;39398;48.382;9.802;2023-07-16T19:03:20;93969.41;;;23.30;100.00
53522;BME280;39398;48.382;9.802;2023-07-16T19:08:23;93979.09;;;23.10;100.00
53522;BME280;39398;48.382;9.802;2023-07-16T19:13:25;93969.03;;;22.75;100.00
53522;BME280;39398;48.382;9.802;2023-07-16T19:18:26;93985.81;;;22.97;100.00
53522;BME280;39398;48.382;9.802;2023-07-16T19:23:35;93985.25;;;23.06;100.00
53522;BME280;39398;48.382;9.802;2023-07-16T19:28:37;93984.69;;;23.04;100.00
53522;BME280;39398;48.382;9.802;2023-07-16T19:33:38;93978.47;;;22.93;100.00
53522;BME280;39398;48.382;9.802;2023-07-16T19:38:42;93985.25;;;22.95;100.00
53522;BME280;39398;48.382;9.802;2023-07-16T19:43:44;93993.00;;;22.82;100.00
53522;BME280;39398;48.382;9.802;2023-07-16T19:48:45;94008.31;;;22.81;100.00
53522;BME280;39398;48.382;9.802;2023-07-16T19:53:48;94008.84;;;22.73;100.00
53522;BME280;39398;48.382;9.802;2023-07-16T19:58:50;94008.75;;;22.52;100.00
53522;BME280;39398;48.382;9.802;2023-07-16T20:03:51;94022.09;;;22.27;100.00
53522;BME280;39398;48.382;9.802;2023-07-16T20:08:54;94017.16;;;22.09;100.00
53522;BME280;39398;48.382;9.802;2023-07-16T20:13:56;94012.59;;;21.07;100.00
53522;BME280;39398;48.382;9.802;2023-07-16T20:18:58;94027.91;;;19.97;100.00
53522;BME280;39398;48.382;9.802;2023-07-16T20:24:01;94024.94;;;20.15;100.00
53522;BME280;39398;48.382;9.802;2023-07-16T20:29:02;94021.84;;;20.24;100.00
53522;BME280;39398;48.382;9.802;2023-07-16T20:34:04;94023.97;;;19.83;100.00
53522;BME280;39398;48.382;9.802;2023-07-16T20:39:07;94035.06;;;19.58;100.00
53522;BME280;39398;48.382;9.802;2023-07-16T20:44:08;94047.22;;;19.99;100.00
53522;BME280;39398;48.382;9.802;2023-07-16T20:49:10;94053.94;;;20.18;100.00
53522;BME280;39398;48.382;9.802;2023-07-16T20:54:13;94056.03;;;19.94;100.00
53522;BME280;39398;48.382;9.802;2023-07-16T20:59:15;94048.00;;;20.16;100.00
53522;BME280;39398;48.382;9.802;2023-07-16T21:04:16;94044.13;;;20.68;100.00
53522;BME280;39398;48.382;9.802;2023-07-16T21:09:19;94049.84;;;20.55;100.00
53522;BME280;39398;48.382;9.802;2023-07-16T21:14:21;94036.66;;;20.09;100.00
53522;BME280;39398;48.382;9.802;2023-07-16T21:19:23;94035.88;;;19.92;100.00
53522;BME280;39398;48.382;9.802;2023-07-16T21:24:26;94033.84;;;19.48;100.00
53522;BME280;39398;48.382;9.802;2023-07-16T21:29:28;94033.38;;;19.18;100.00
53522;BME280;39398;48.382;9.802;2023-07-16T21:34:30;94028.94;;;18.95;100.00
53522;BME280;39398;48.382;9.802;2023-07-16T21:39:34;94035.16;;;19.46;100.00
53522;BME280;39398;48.382;9.802;2023-07-16T21:44:36;94032.16;;;19.59;100.00
53522;BME280;39398;48.382;9.802;2023-07-16T21:49:38;94035.56;;;19.38;100.00
53522;BME280;39398;48.382;9.802;2023-07-16T21:54:41;94040.19;;;19.42;100.00
53522;BME280;39398;48.382;9.802;2023-07-16T21:59:43;94044.00;;;19.46;100.00
53522;BME280;39398;48.382;9.802;2023-07-16T22:04:44;94048.28;;;18.85;100.00
53522;BME280;39398;48.382;9.802;2023-07-16T22:09:48;94054.69;;;18.84;100.00
53522;BME280;39398;48.382;9.802;2023-07-16T22:14:49;94058.91;;;19.09;100.00
53522;BME280;39398;48.382;9.802;2023-07-16T22:19:51;94056.78;;;18.82;100.00
53522;BME280;39398;48.382;9.802;2023-07-16T22:24:55;94055.19;;;18.69;100.00
53522;BME280;39398;48.382;9.802;2023-07-16T22:29:57;94073.16;;;18.86;100.00
53522;BME280;39398;48.382;9.802;2023-07-16T22:34:58;94074.03;;;18.74;100.00
53522;BME280;39398;48.382;9.802;2023-07-16T22:40:01;94072.56;;;18.55;100.00
53522;BME280;39398;48.382;9.802;2023-07-16T22:45:04;94073.06;;;18.40;100.00
53522;BME280;39398;48.382;9.802;2023-07-16T22:50:07;94071.56;;;18.44;100.00
53522;BME280;39398;48.382;9.802;2023-07-16T22:55:23;94085.41;;;18.29;100.00
53522;BME280;39398;48.382;9.802;2023-07-16T23:00:25;94075.56;;;18.06;100.00
53522;BME280;39398;48.382;9.802;2023-07-16T23:05:26;94072.44;;;18.09;100.00
53522;BME280;39398;48.382;9.802;2023-07-16T23:10:30;94072.97;;;18.23;100.00
53522;BME280;39398;48.382;9.802;2023-07-16T23:15:31;94081.34;;;18.15;100.00
53522;BME280;39398;48.382;9.802;2023-07-16T23:20:33;94091.34;;;18.31;100.00
53522;BME280;39398;48.382;9.802;2023-07-16T23:25:36;94099.47;;;17.78;100.00
53522;BME280;39398;48.382;9.802;2023-07-16T23:30:37;94099.56;;;17.17;100.00
53522;BME280;39398;48.382;9.802;2023-07-16T23:35:39;94089.41;;;17.26;100.00
53522;BME280;39398;48.382;9.802;2023-07-16T23:40:42;94095.00;;;17.36;100.00
53522;BME280;39398;48.382;9.802;2023-07-16T23:45:43;94094.16;;;17.78;100.00
53522;BME280;39398;48.382;9.802;2023-07-16T23:50:45;94090.78;;;17.94;100.00
53522;BME280;39398;48.382;9.802;2023-07-16T23:55:52;94094.59;;;17.86;100.00
